Terminal Aerodrome Forecast
Issued by NWS

Home | Current Version | Previous Version | Text Only | Print | Product List | Glossary On
Versions: 1 2 3 4 5 6 7 8 9 10 11 12
000
FTUS45 KLKN 061737
TAFELY
TAF
KELY 061737Z 0618/0718 22010KT P6SM FEW090
     FM062000 27012G22KT P6SM BKN080
     FM070100 32009KT P6SM BKN060
     FM070500 VRB06KT P6SM VCSH BKN050
     FM071200 VRB06KT P6SM SCT050=

USA.gov is the U.S. government's official web portal to all federal, state and local government web resources and services.